createdAt,value
2023-02-15T00:00:11.769Z,1.40
2023-02-15T00:02:39.999Z,1.40
2023-02-15T00:05:08.916Z,1.40
2023-02-15T00:07:37.045Z,1.40
2023-02-15T00:10:07.783Z,1.40
2023-02-15T00:12:35.738Z,1.40
2023-02-15T00:15:03.789Z,1.40
2023-02-15T00:17:32.115Z,1.40
2023-02-15T00:20:00.087Z,1.30
2023-02-15T00:22:28.373Z,1.30
2023-02-15T00:24:56.277Z,1.30
2023-02-15T00:27:25.870Z,1.30
2023-02-15T00:29:53.856Z,1.30
2023-02-15T00:32:21.911Z,1.20
2023-02-15T00:34:50.024Z,1.30
2023-02-15T00:37:18.029Z,1.30
2023-02-15T00:39:49.141Z,1.20
2023-02-15T00:42:18.744Z,1.20
2023-02-15T00:44:48.202Z,1.20
2023-02-15T00:47:16.136Z,1.20
2023-02-15T00:49:44.059Z,1.20
2023-02-15T00:52:12.148Z,1.20
2023-02-15T00:54:40.588Z,1.20
2023-02-15T00:57:08.521Z,1.10
2023-02-15T00:59:36.528Z,1.10
2023-02-15T01:02:05.817Z,1.10
2023-02-15T01:04:33.770Z,1.10
2023-02-15T01:07:02.868Z,1.10
2023-02-15T01:09:31.131Z,1.10
2023-02-15T01:11:59.069Z,1.10
2023-02-15T01:14:28.309Z,1.10
2023-02-15T01:16:56.301Z,1.10
2023-02-15T01:19:25.635Z,1.00
2023-02-15T01:21:53.709Z,1.00
2023-02-15T01:24:21.645Z,1.00
2023-02-15T01:26:49.673Z,1.00
2023-02-15T01:29:17.677Z,1.10
2023-02-15T01:31:45.683Z,1.10
2023-02-15T01:34:16.018Z,1.10
2023-02-15T01:36:45.391Z,1.10
2023-02-15T01:39:13.362Z,1.10
2023-02-15T01:41:41.385Z,1.10
2023-02-15T01:44:42.788Z,1.10
2023-02-15T01:47:13.312Z,1.10
2023-02-15T01:49:42.377Z,1.10
2023-02-15T01:52:14.567Z,1.10
2023-02-15T01:54:45.330Z,1.10
2023-02-15T01:57:17.142Z,1.10
2023-02-15T01:59:49.657Z,1.20
2023-02-15T02:02:21.772Z,1.20
2023-02-15T02:04:51.632Z,1.20
2023-02-15T02:07:24.225Z,1.20
2023-02-15T02:09:52.549Z,1.20
2023-02-15T02:12:22.342Z,1.20
2023-02-15T02:14:51.679Z,1.10
2023-02-15T02:17:24.402Z,1.10
2023-02-15T02:20:28.686Z,1.10
2023-02-15T02:23:35.928Z,1.00
2023-02-15T02:26:37.931Z,1.00
2023-02-15T02:29:37.907Z,1.00
2023-02-15T02:32:39.036Z,1.00
2023-02-15T02:35:13.433Z,1.00
2023-02-15T02:37:52.870Z,1.00
2023-02-15T02:40:27.831Z,1.00
2023-02-15T02:43:01.951Z,1.00
2023-02-15T02:45:34.743Z,1.00
2023-02-15T02:48:07.802Z,1.00
2023-02-15T02:50:37.380Z,0.90
2023-02-15T02:53:05.343Z,0.90
2023-02-15T02:55:40.405Z,0.90
2023-02-15T02:58:13.189Z,0.90
2023-02-15T03:00:46.367Z,0.80
2023-02-15T03:03:17.145Z,0.80
2023-02-15T03:05:49.735Z,0.80
2023-02-15T03:08:23.051Z,0.80
2023-02-15T03:10:55.496Z,0.80
2023-02-15T03:13:24.877Z,0.80
2023-02-15T03:16:11.675Z,0.80
2023-02-15T03:18:44.643Z,0.80
2023-02-15T03:21:23.042Z,0.80
2023-02-15T03:23:55.835Z,0.80
2023-02-15T03:26:26.730Z,0.80
2023-02-15T03:28:57.588Z,0.80
2023-02-15T03:31:30.658Z,0.80
2023-02-15T03:34:05.140Z,0.80
2023-02-15T03:36:40.759Z,0.80
2023-02-15T03:39:14.365Z,0.80
2023-02-15T03:41:50.704Z,0.70
2023-02-15T03:44:24.201Z,0.70
2023-02-15T03:46:56.874Z,0.70
2023-02-15T03:49:30.474Z,0.70
2023-02-15T03:52:04.427Z,0.70
2023-02-15T03:54:45.710Z,0.70
2023-02-15T03:57:34.726Z,0.70
2023-02-15T04:00:23.853Z,0.70
2023-02-15T04:03:23.133Z,0.80
2023-02-15T04:05:51.545Z,0.70
2023-02-15T04:08:20.888Z,0.60
2023-02-15T04:10:53.563Z,0.60
2023-02-15T04:13:21.945Z,0.60
2023-02-15T04:16:04.219Z,0.50
2023-02-15T04:18:52.172Z,0.50
2023-02-15T04:21:38.229Z,0.50
2023-02-15T04:24:25.456Z,0.50
2023-02-15T04:26:54.468Z,0.60
2023-02-15T04:29:22.946Z,0.60
2023-02-15T04:31:51.388Z,0.60
2023-02-15T04:34:19.595Z,0.60
2023-02-15T04:36:47.612Z,0.70
2023-02-15T04:39:18.612Z,0.60
2023-02-15T04:41:48.715Z,0.60
2023-02-15T04:44:17.287Z,0.60
2023-02-15T04:46:45.274Z,0.60
2023-02-15T04:49:13.386Z,0.60
2023-02-15T04:51:41.320Z,0.60
2023-02-15T04:54:09.295Z,0.60
2023-02-15T04:56:40.026Z,0.60
2023-02-15T04:59:08.055Z,0.60
2023-02-15T05:01:36.033Z,0.60
2023-02-15T05:04:03.992Z,0.60
2023-02-15T05:06:32.082Z,0.60
2023-02-15T05:09:00.360Z,0.60
2023-02-15T05:11:28.441Z,0.60
2023-02-15T05:13:57.755Z,0.60
2023-02-15T05:16:26.468Z,0.60
2023-02-15T05:18:54.494Z,0.70
2023-02-15T05:21:23.045Z,0.70
2023-02-15T05:23:51.228Z,0.70
2023-02-15T05:26:41.388Z,0.70
2023-02-15T05:29:11.238Z,0.60
2023-02-15T05:31:40.024Z,0.60
2023-02-15T05:34:08.156Z,0.60
2023-02-15T05:36:36.114Z,0.60
2023-02-15T05:39:04.997Z,0.50
2023-02-15T05:41:32.940Z,0.60
2023-02-15T05:44:00.860Z,0.70
2023-02-15T05:46:30.480Z,0.80
2023-02-15T05:48:58.451Z,0.90
2023-02-15T05:51:26.341Z,1.00
2023-02-15T05:53:54.216Z,1.00
2023-02-15T05:56:22.192Z,1.00
2023-02-15T05:58:50.128Z,0.90
2023-02-15T06:01:22.739Z,0.90
2023-02-15T06:03:52.920Z,0.90
2023-02-15T06:06:20.936Z,0.90
2023-02-15T06:08:48.933Z,0.90
2023-02-15T06:11:16.854Z,1.00
2023-02-15T06:13:44.859Z,1.00
2023-02-15T06:16:12.975Z,1.00
2023-02-15T06:18:41.174Z,1.10
2023-02-15T06:21:10.490Z,1.00
2023-02-15T06:23:39.043Z,1.00
2023-02-15T06:26:07.000Z,1.00
2023-02-15T06:28:35.331Z,1.00
2023-02-15T06:31:03.289Z,1.00
2023-02-15T06:33:34.677Z,1.10
2023-02-15T06:36:02.903Z,1.10
2023-02-15T06:38:32.894Z,1.10
2023-02-15T06:41:00.875Z,1.10
2023-02-15T06:43:28.879Z,1.10
2023-02-15T06:45:56.859Z,1.20
2023-02-15T06:48:24.810Z,1.20
2023-02-15T06:50:52.837Z,1.20
2023-02-15T06:53:20.733Z,1.20
2023-02-15T06:55:50.060Z,1.20
2023-02-15T06:58:17.980Z,1.20
2023-02-15T07:00:45.981Z,1.20
2023-02-15T07:03:15.732Z,1.20
2023-02-15T07:05:44.577Z,1.20
2023-02-15T07:08:12.527Z,1.20
2023-02-15T07:10:40.533Z,1.10
2023-02-15T07:13:08.837Z,1.10
2023-02-15T07:15:36.818Z,1.10
2023-02-15T07:18:06.114Z,1.10
2023-02-15T07:20:37.597Z,1.10
2023-02-15T07:23:06.708Z,1.10
2023-02-15T07:25:34.871Z,1.00
2023-02-15T07:28:04.668Z,1.00
2023-02-15T07:30:34.076Z,1.10
2023-02-15T07:33:19.382Z,1.10
2023-02-15T07:35:50.630Z,1.10
2023-02-15T07:38:18.955Z,1.20
2023-02-15T07:40:47.679Z,1.20
2023-02-15T07:43:16.129Z,1.20
2023-02-15T07:45:45.747Z,1.30
2023-02-15T07:48:13.864Z,1.30
2023-02-15T07:50:41.920Z,1.40
2023-02-15T07:53:09.883Z,1.40
2023-02-15T07:55:37.881Z,1.50
2023-02-15T07:58:05.786Z,1.60
2023-02-15T08:00:53.759Z,1.60
2023-02-15T08:03:27.633Z,1.70
2023-02-15T08:05:59.835Z,1.70
2023-02-15T08:08:36.282Z,1.80
2023-02-15T08:11:24.668Z,1.80
2023-02-15T08:13:57.483Z,1.90
2023-02-15T08:16:26.602Z,2.00
2023-02-15T08:18:56.786Z,2.10
2023-02-15T08:21:26.651Z,2.20
2023-02-15T08:23:55.316Z,2.20
2023-02-15T08:26:24.112Z,2.30
2023-02-15T08:28:53.295Z,2.30
2023-02-15T08:31:21.905Z,2.30
2023-02-15T08:33:52.085Z,2.40
2023-02-15T08:36:22.874Z,2.40
2023-02-15T08:38:51.191Z,2.40
2023-02-15T08:41:21.247Z,2.40
2023-02-15T08:43:50.355Z,2.50
2023-02-15T08:46:19.128Z,2.50
2023-02-15T08:48:47.425Z,2.50
2023-02-15T08:51:17.159Z,2.50
2023-02-15T08:53:50.944Z,2.50
2023-02-15T08:56:21.101Z,2.50
2023-02-15T08:58:49.226Z,2.50
2023-02-15T09:01:20.863Z,2.50
2023-02-15T09:03:50.375Z,2.60
2023-02-15T09:06:19.416Z,2.60
2023-02-15T09:08:48.810Z,2.70
2023-02-15T09:11:23.679Z,2.80
2023-02-15T09:13:54.291Z,2.80
2023-02-15T09:16:23.041Z,2.90
2023-02-15T09:18:52.240Z,2.90
2023-02-15T09:21:22.639Z,3.00
2023-02-15T09:23:53.638Z,3.10
2023-02-15T09:26:23.811Z,3.30
2023-02-15T09:28:56.467Z,3.40
2023-02-15T09:31:26.695Z,3.50
2023-02-15T09:33:55.469Z,3.60
2023-02-15T09:36:25.390Z,3.70
2023-02-15T09:38:58.419Z,3.70
2023-02-15T09:41:54.403Z,3.80
2023-02-15T09:44:34.239Z,3.80
2023-02-15T09:47:29.028Z,3.80
2023-02-15T09:50:04.865Z,3.90
2023-02-15T09:52:50.895Z,4.00
2023-02-15T09:55:40.056Z,4.00
2023-02-15T09:58:18.814Z,4.10
2023-02-15T10:00:55.234Z,4.10
2023-02-15T10:03:49.848Z,4.20
2023-02-15T10:06:34.749Z,4.30
2023-02-15T10:09:26.957Z,4.40
2023-02-15T10:12:11.935Z,4.60
2023-02-15T10:15:12.511Z,4.90
2023-02-15T10:17:53.382Z,5.10
2023-02-15T10:20:31.311Z,5.40
2023-02-15T10:23:17.877Z,5.60
2023-02-15T10:25:51.923Z,5.80
2023-02-15T10:28:25.157Z,5.80
2023-02-15T10:30:55.765Z,5.70
2023-02-15T10:33:40.957Z,5.60
2023-02-15T10:36:22.436Z,5.50
2023-02-15T10:38:56.557Z,5.30
2023-02-15T10:41:33.349Z,5.20
2023-02-15T10:44:13.974Z,5.10
2023-02-15T10:47:02.200Z,5.00
2023-02-15T10:49:47.946Z,5.10
2023-02-15T10:52:31.531Z,5.10
2023-02-15T10:55:08.523Z,5.10
2023-02-15T10:57:47.690Z,5.10
2023-02-15T11:00:20.131Z,5.20
2023-02-15T11:03:13.622Z,5.30
2023-02-15T11:05:51.217Z,5.50
2023-02-15T11:08:20.025Z,5.70
2023-02-15T11:10:52.687Z,5.80
2023-02-15T11:13:23.132Z,6.00
2023-02-15T11:15:56.083Z,6.10
2023-02-15T11:18:28.266Z,6.10
2023-02-15T11:21:03.786Z,6.10
2023-02-15T11:23:34.029Z,6.00
2023-02-15T11:26:04.376Z,5.90
2023-02-15T11:28:36.485Z,5.90
2023-02-15T11:31:15.996Z,5.80
2023-02-15T11:33:48.713Z,5.70
2023-02-15T11:36:20.500Z,5.70
2023-02-15T11:38:50.440Z,5.70
2023-02-15T11:41:25.123Z,5.50
2023-02-15T11:44:00.120Z,5.40
2023-02-15T11:46:29.731Z,5.20
2023-02-15T11:48:59.286Z,5.00
2023-02-15T11:51:29.697Z,4.90
2023-02-15T11:53:58.898Z,4.80
2023-02-15T11:56:27.847Z,4.70
2023-02-15T11:59:00.525Z,4.70
2023-02-15T12:01:34.498Z,4.70
2023-02-15T12:04:08.866Z,4.70
2023-02-15T12:06:43.163Z,4.70
2023-02-15T12:09:23.721Z,4.70
2023-02-15T12:11:51.875Z,4.80
2023-02-15T12:14:21.168Z,4.80
2023-02-15T12:16:52.571Z,4.90
2023-02-15T12:19:32.043Z,5.00
2023-02-15T12:22:03.129Z,5.00
2023-02-15T12:24:33.889Z,5.10
2023-02-15T12:27:05.438Z,5.20
2023-02-15T12:29:41.206Z,5.30
2023-02-15T12:32:19.160Z,5.40
2023-02-15T12:34:48.689Z,5.50
2023-02-15T12:37:23.305Z,5.60
2023-02-15T12:39:56.717Z,5.70
2023-02-15T12:42:26.314Z,5.80
2023-02-15T12:45:00.349Z,5.90
2023-02-15T12:47:31.602Z,6.00
2023-02-15T12:50:18.554Z,6.10
2023-02-15T12:52:49.511Z,6.30
2023-02-15T12:55:24.190Z,6.40
2023-02-15T12:58:10.907Z,6.50
2023-02-15T13:00:38.944Z,6.60
2023-02-15T13:03:19.416Z,6.80
2023-02-15T13:05:51.505Z,6.90
2023-02-15T13:08:21.798Z,7.10
2023-02-15T13:10:56.495Z,7.20
2023-02-15T13:13:27.440Z,7.40
2023-02-15T13:15:58.320Z,7.50
2023-02-15T13:18:33.230Z,7.60
2023-02-15T13:21:08.360Z,7.70
2023-02-15T13:23:36.576Z,7.80
2023-02-15T13:26:11.467Z,7.90
2023-02-15T13:28:43.058Z,8.00
2023-02-15T13:31:16.160Z,8.00
2023-02-15T13:33:49.882Z,8.10
2023-02-15T13:36:25.692Z,8.30
2023-02-15T13:39:03.686Z,8.30
2023-02-15T13:41:36.827Z,8.40
2023-02-15T13:44:17.084Z,8.50
2023-02-15T13:47:00.535Z,8.60
2023-02-15T13:49:47.022Z,8.60
2023-02-15T13:52:21.998Z,8.70
2023-02-15T13:55:26.606Z,8.80
2023-02-15T13:58:16.333Z,8.90
2023-02-15T14:00:54.246Z,8.90
2023-02-15T14:03:51.317Z,9.00
2023-02-15T14:06:53.239Z,9.00
2023-02-15T14:09:33.771Z,9.10
2023-02-15T14:12:14.472Z,9.10
2023-02-15T14:15:10.328Z,9.20
2023-02-15T14:17:50.615Z,9.20
2023-02-15T14:20:25.752Z,9.30
2023-02-15T14:23:07.737Z,9.40
2023-02-15T14:25:41.172Z,9.50
2023-02-15T14:28:13.736Z,9.50
2023-02-15T14:30:44.650Z,9.60
2023-02-15T14:33:32.826Z,9.60
2023-02-15T14:36:04.700Z,9.60
2023-02-15T14:38:48.515Z,9.70
2023-02-15T14:41:22.419Z,9.70
2023-02-15T14:43:57.480Z,9.90
2023-02-15T14:46:32.204Z,9.80
2023-02-15T14:49:08.830Z,9.80
2023-02-15T14:51:57.686Z,9.80
2023-02-15T14:55:01.324Z,9.90
2023-02-15T14:57:36.315Z,9.90
2023-02-15T15:00:35.562Z,9.90
2023-02-15T15:03:03.595Z,9.90
2023-02-15T15:05:36.523Z,9.90
2023-02-15T15:08:06.915Z,9.80
2023-02-15T15:10:42.627Z,9.80
2023-02-15T15:13:53.062Z,9.80
2023-02-15T15:16:48.859Z,9.70
2023-02-15T15:20:04.840Z,9.70
2023-02-15T15:22:34.429Z,9.80
2023-02-15T15:25:03.568Z,9.80
2023-02-15T15:27:59.997Z,9.80
2023-02-15T15:31:04.782Z,9.80
2023-02-15T15:34:03.992Z,9.80
2023-02-15T15:37:08.764Z,9.80
2023-02-15T15:40:20.927Z,9.80
2023-02-15T15:42:59.587Z,9.80
2023-02-15T15:45:48.530Z,9.80
2023-02-15T15:48:31.195Z,9.70
2023-02-15T15:51:01.549Z,9.80
2023-02-15T15:53:32.641Z,9.70
2023-02-15T15:56:05.324Z,9.60
2023-02-15T15:58:35.638Z,9.60
2023-02-15T16:01:10.429Z,9.50
2023-02-15T16:03:38.503Z,9.40
2023-02-15T16:06:07.139Z,9.40
2023-02-15T16:08:36.809Z,9.30
2023-02-15T16:11:13.076Z,9.20
2023-02-15T16:13:42.785Z,9.20
2023-02-15T16:16:14.775Z,9.20
2023-02-15T16:18:43.324Z,9.10
2023-02-15T16:21:19.402Z,9.10
2023-02-15T16:24:32.829Z,9.00
2023-02-15T16:27:19.111Z,8.90
2023-02-15T16:29:47.184Z,8.80
2023-02-15T16:32:23.315Z,8.80
2023-02-15T16:34:59.111Z,8.70
2023-02-15T16:37:28.858Z,8.60
2023-02-15T16:39:57.474Z,8.50
2023-02-15T16:42:26.483Z,8.40
2023-02-15T16:45:01.244Z,8.40
2023-02-15T16:47:37.908Z,8.30
2023-02-15T16:50:07.236Z,8.20
2023-02-15T16:52:38.165Z,8.10
2023-02-15T16:55:07.932Z,8.10
2023-02-15T16:57:39.893Z,8.00
2023-02-15T17:00:11.147Z,7.90
2023-02-15T17:02:55.678Z,7.80
2023-02-15T17:05:25.097Z,7.70
2023-02-15T17:08:12.817Z,7.70
2023-02-15T17:10:44.055Z,7.60
2023-02-15T17:13:13.410Z,7.60
2023-02-15T17:15:43.540Z,7.50
2023-02-15T17:18:18.745Z,7.50
2023-02-15T17:20:47.835Z,7.40
2023-02-15T17:23:27.905Z,7.40
2023-02-15T17:25:56.394Z,7.30
2023-02-15T17:28:27.386Z,7.30
2023-02-15T17:30:57.015Z,7.30
2023-02-15T17:33:30.027Z,7.20
2023-02-15T17:36:10.680Z,7.10
2023-02-15T17:38:39.848Z,7.00
2023-02-15T17:41:08.221Z,7.00
2023-02-15T17:43:36.900Z,6.90
2023-02-15T17:46:05.065Z,6.90
2023-02-15T17:48:37.320Z,6.80
2023-02-15T17:51:06.927Z,6.80
2023-02-15T17:53:35.399Z,6.80
2023-02-15T17:56:10.406Z,6.70
2023-02-15T17:58:39.170Z,6.70
2023-02-15T18:01:30.596Z,6.70
2023-02-15T18:04:17.620Z,6.70
2023-02-15T18:07:03.401Z,6.60
2023-02-15T18:09:49.159Z,6.50
2023-02-15T18:12:21.781Z,6.50
2023-02-15T18:14:50.478Z,6.40
2023-02-15T18:17:19.640Z,6.40
2023-02-15T18:19:49.433Z,6.40
2023-02-15T18:22:19.639Z,6.30
2023-02-15T18:24:48.479Z,6.30
2023-02-15T18:27:17.515Z,6.30
2023-02-15T18:29:45.643Z,6.30
2023-02-15T18:32:18.986Z,6.30
2023-02-15T18:34:50.184Z,6.30
2023-02-15T18:37:24.615Z,6.30
2023-02-15T18:39:54.140Z,6.30
2023-02-15T18:42:23.761Z,6.30
2023-02-15T18:44:54.545Z,6.30
2023-02-15T18:47:22.545Z,6.20
2023-02-15T18:49:52.194Z,6.10
2023-02-15T18:52:22.857Z,6.10
2023-02-15T18:54:53.892Z,6.00
2023-02-15T18:57:21.917Z,6.00
2023-02-15T18:59:49.907Z,5.90
2023-02-15T19:02:19.705Z,5.80
2023-02-15T19:04:48.155Z,5.70
2023-02-15T19:07:21.031Z,5.80
2023-02-15T19:09:52.511Z,5.70
2023-02-15T19:12:20.976Z,5.80
2023-02-15T19:14:51.211Z,5.60
2023-02-15T19:17:21.442Z,5.60
2023-02-15T19:19:50.447Z,5.60
2023-02-15T19:22:26.004Z,5.70
2023-02-15T19:24:55.622Z,5.70
2023-02-15T19:27:27.077Z,5.70
2023-02-15T19:29:55.834Z,5.70
2023-02-15T19:32:23.811Z,5.80
2023-02-15T19:34:51.829Z,5.80
2023-02-15T19:37:25.741Z,5.80
2023-02-15T19:39:54.475Z,5.70
2023-02-15T19:42:24.552Z,5.70
2023-02-15T19:44:54.391Z,5.70
2023-02-15T19:47:23.156Z,5.70
2023-02-15T19:49:51.152Z,5.60
2023-02-15T19:52:24.171Z,5.60
2023-02-15T19:54:54.443Z,5.50
2023-02-15T19:57:23.574Z,5.50
2023-02-15T19:59:51.830Z,5.50
2023-02-15T20:02:22.900Z,5.50
2023-02-15T20:04:50.947Z,5.40
2023-02-15T20:07:27.013Z,5.40
2023-02-15T20:09:55.184Z,5.30
2023-02-15T20:12:24.832Z,5.30
2023-02-15T20:14:53.296Z,5.20
2023-02-15T20:17:21.457Z,5.10
2023-02-15T20:19:49.836Z,5.10
2023-02-15T20:22:24.170Z,5.10
2023-02-15T20:24:56.161Z,5.00
2023-02-15T20:27:24.335Z,4.90
2023-02-15T20:29:55.713Z,4.80
2023-02-15T20:32:23.957Z,4.80
2023-02-15T20:34:52.110Z,4.70
2023-02-15T20:37:24.269Z,4.70
2023-02-15T20:39:53.638Z,4.60
2023-02-15T20:42:21.779Z,4.50
2023-02-15T20:44:49.742Z,4.50
2023-02-15T20:47:18.384Z,4.50
2023-02-15T20:49:46.361Z,4.40
2023-02-15T20:52:20.529Z,4.40
2023-02-15T20:54:48.654Z,4.30
2023-02-15T20:57:18.002Z,4.30
2023-02-15T20:59:46.339Z,4.30
2023-02-15T21:02:19.049Z,4.30
2023-02-15T21:04:47.353Z,4.30
2023-02-15T21:07:17.259Z,4.30
2023-02-15T21:09:45.513Z,4.30
2023-02-15T21:12:16.347Z,4.30
2023-02-15T21:14:46.414Z,4.30
2023-02-15T21:17:16.355Z,4.30
2023-02-15T21:19:44.524Z,4.20
2023-02-15T21:22:14.433Z,4.20
2023-02-15T21:24:50.170Z,4.20
2023-02-15T21:27:18.408Z,4.10
2023-02-15T21:29:48.017Z,4.20
2023-02-15T21:32:16.057Z,4.10
2023-02-15T21:34:44.078Z,4.10
2023-02-15T21:37:27.951Z,4.00
2023-02-15T21:39:56.144Z,4.00
2023-02-15T21:42:41.403Z,4.00
2023-02-15T21:45:34.412Z,3.90
2023-02-15T21:48:02.744Z,3.90
2023-02-15T21:50:47.977Z,3.80
2023-02-15T21:53:23.023Z,3.80
2023-02-15T21:55:52.437Z,3.80
2023-02-15T21:58:21.776Z,3.70
2023-02-15T22:00:54.649Z,3.70
2023-02-15T22:03:23.694Z,3.70
2023-02-15T22:05:52.426Z,3.70
2023-02-15T22:08:20.832Z,3.70
2023-02-15T22:10:49.325Z,3.70
2023-02-15T22:13:20.738Z,3.70
2023-02-15T22:15:50.049Z,3.70
2023-02-15T22:18:22.857Z,3.70
2023-02-15T22:20:50.916Z,3.70
2023-02-15T22:23:18.947Z,3.60
2023-02-15T22:25:54.518Z,3.60
2023-02-15T22:28:27.767Z,3.50
2023-02-15T22:30:57.055Z,3.50
2023-02-15T22:33:27.526Z,3.50
2023-02-15T22:35:56.085Z,3.40
2023-02-15T22:38:24.438Z,3.40
2023-02-15T22:40:54.566Z,3.30
2023-02-15T22:43:41.218Z,3.30
2023-02-15T22:46:16.662Z,3.30
2023-02-15T22:48:45.529Z,3.20
2023-02-15T22:51:14.901Z,3.20
2023-02-15T22:53:43.239Z,3.20
2023-02-15T22:56:18.086Z,3.20
2023-02-15T22:58:48.394Z,3.10
2023-02-15T23:01:24.684Z,3.10
2023-02-15T23:03:52.850Z,3.10
2023-02-15T23:06:20.779Z,3.10
2023-02-15T23:08:48.981Z,3.10
2023-02-15T23:11:17.991Z,3.00
2023-02-15T23:13:48.353Z,3.00
2023-02-15T23:16:19.173Z,3.00
2023-02-15T23:18:49.409Z,3.00
2023-02-15T23:21:21.582Z,3.00
2023-02-15T23:23:51.674Z,2.90
2023-02-15T23:26:22.433Z,2.90
2023-02-15T23:28:51.459Z,2.80
2023-02-15T23:31:21.446Z,2.80
2023-02-15T23:33:52.491Z,2.80
2023-02-15T23:36:29.835Z,2.70
2023-02-15T23:38:59.187Z,2.70
2023-02-15T23:41:29.024Z,2.70
2023-02-15T23:44:00.738Z,2.60
2023-02-15T23:46:32.885Z,2.60
2023-02-15T23:49:02.216Z,2.60
2023-02-15T23:51:32.315Z,2.60
2023-02-15T23:54:00.901Z,2.60
2023-02-15T23:56:29.429Z,2.60
2023-02-15T23:58:57.474Z,2.60
